createdAt,value
2023-05-08T00:00:05.123Z,69.59
2023-05-08T00:02:32.748Z,69.70
2023-05-08T00:05:00.317Z,69.29
2023-05-08T00:07:27.769Z,69.17
2023-05-08T00:09:55.148Z,68.92
2023-05-08T00:12:22.503Z,69.07
2023-05-08T00:14:49.836Z,69.12
2023-05-08T00:17:17.476Z,69.27
2023-05-08T00:19:44.770Z,68.63
2023-05-08T00:22:12.169Z,68.89
2023-05-08T00:24:39.512Z,68.98
2023-05-08T00:27:08.309Z,69.28
2023-05-08T00:29:36.061Z,68.57
2023-05-08T00:32:03.552Z,68.84
2023-05-08T00:34:30.982Z,68.72
2023-05-08T00:36:58.289Z,68.74
2023-05-08T00:39:25.673Z,68.91
2023-05-08T00:41:53.393Z,68.73
2023-05-08T00:44:20.668Z,68.98
2023-05-08T00:46:48.273Z,69.11
2023-05-08T00:49:15.762Z,69.23
2023-05-08T00:51:47.951Z,68.66
2023-05-08T00:54:15.518Z,68.98
2023-05-08T00:56:42.866Z,68.87
2023-05-08T00:59:12.122Z,68.04
2023-05-08T01:01:39.468Z,68.42
2023-05-08T01:04:07.030Z,68.38
2023-05-08T01:06:34.351Z,68.96
2023-05-08T01:09:01.722Z,69.10
2023-05-08T01:11:43.822Z,68.44
2023-05-08T01:14:22.606Z,68.41
2023-05-08T01:17:17.825Z,68.70
2023-05-08T01:19:57.039Z,68.09
2023-05-08T01:22:51.535Z,68.74
2023-05-08T01:25:40.447Z,68.31
2023-05-08T01:28:26.354Z,68.96
2023-05-08T01:31:05.618Z,69.33
2023-05-08T01:33:40.772Z,69.08
2023-05-08T01:36:21.327Z,69.06
2023-05-08T01:38:54.116Z,69.31
2023-05-08T01:41:30.618Z,69.37
2023-05-08T01:44:12.818Z,69.29
2023-05-08T01:46:40.209Z,69.78
2023-05-08T01:49:12.238Z,69.82
2023-05-08T01:51:44.927Z,70.17
2023-05-08T01:54:15.122Z,69.84
2023-05-08T01:56:45.878Z,69.95
2023-05-08T01:59:14.261Z,69.71
2023-05-08T02:01:43.848Z,69.72
2023-05-08T02:04:11.197Z,69.43
2023-05-08T02:06:38.572Z,69.42
2023-05-08T02:09:07.832Z,69.50
2023-05-08T02:11:35.947Z,69.96
2023-05-08T02:14:03.297Z,69.51
2023-05-08T02:16:30.750Z,69.21
2023-05-08T02:18:59.028Z,69.22
2023-05-08T02:21:26.490Z,69.08
2023-05-08T02:23:54.515Z,69.44
2023-05-08T02:26:22.376Z,69.74
2023-05-08T02:28:58.739Z,69.55
2023-05-08T02:31:26.023Z,69.28
2023-05-08T02:33:53.343Z,70.49
2023-05-08T02:36:20.915Z,70.27
2023-05-08T02:38:51.398Z,70.19
2023-05-08T02:41:22.217Z,70.15
2023-05-08T02:43:51.916Z,69.58
2023-05-08T02:46:39.129Z,69.33
2023-05-08T02:49:23.138Z,69.69
2023-05-08T02:51:53.475Z,69.44
2023-05-08T02:54:31.158Z,70.00
2023-05-08T02:57:00.782Z,70.22
2023-05-08T02:59:36.946Z,70.75
2023-05-08T03:02:11.185Z,70.54
2023-05-08T03:04:51.638Z,71.05
2023-05-08T03:07:20.423Z,70.55
2023-05-08T03:09:49.041Z,70.86
2023-05-08T03:12:18.520Z,72.04
2023-05-08T03:14:52.014Z,71.71
2023-05-08T03:17:19.631Z,71.47
2023-05-08T03:19:49.781Z,72.03
2023-05-08T03:22:18.108Z,72.13
2023-05-08T03:24:45.540Z,71.97
2023-05-08T03:27:13.358Z,72.08
2023-05-08T03:29:41.031Z,72.09
2023-05-08T03:32:08.609Z,72.17
2023-05-08T03:34:36.984Z,72.03
2023-05-08T03:37:04.322Z,72.50
2023-05-08T03:39:31.658Z,71.90
2023-05-08T03:41:59.023Z,72.32
2023-05-08T03:44:26.396Z,71.59
2023-05-08T03:46:53.773Z,71.74
2023-05-08T03:49:21.116Z,72.24
2023-05-08T03:51:48.358Z,71.45
2023-05-08T03:54:15.677Z,71.12
2023-05-08T03:56:45.940Z,70.94
2023-05-08T03:59:18.085Z,70.58
2023-05-08T04:01:59.010Z,70.79
2023-05-08T04:04:40.022Z,70.43
2023-05-08T04:07:12.968Z,69.70
2023-05-08T04:09:55.908Z,68.89
2023-05-08T04:12:35.621Z,67.91
2023-05-08T04:15:10.941Z,67.53
2023-05-08T04:18:09.293Z,67.74
2023-05-08T04:20:41.653Z,67.49
2023-05-08T04:23:09.378Z,66.94
2023-05-08T04:25:37.455Z,67.14
2023-05-08T04:28:05.669Z,66.67
2023-05-08T04:30:33.877Z,66.92
2023-05-08T04:33:03.447Z,66.63
2023-05-08T04:35:30.837Z,67.08
2023-05-08T04:37:59.129Z,66.51
2023-05-08T04:40:26.632Z,66.46
2023-05-08T04:42:54.051Z,66.02
2023-05-08T04:45:22.781Z,65.67
2023-05-08T04:47:50.168Z,65.50
2023-05-08T04:50:17.688Z,65.10
2023-05-08T04:52:45.001Z,65.15
2023-05-08T04:55:12.526Z,65.39
2023-05-08T04:57:40.173Z,65.23
2023-05-08T05:00:08.720Z,64.49
2023-05-08T05:02:39.651Z,64.58
2023-05-08T05:05:07.648Z,64.26
2023-05-08T05:07:35.198Z,64.04
2023-05-08T05:10:02.914Z,64.67
2023-05-08T05:12:32.055Z,62.94
2023-05-08T05:14:59.422Z,63.32
2023-05-08T05:17:31.451Z,62.43
2023-05-08T05:20:03.023Z,61.02
2023-05-08T05:22:33.289Z,60.34
2023-05-08T05:25:00.889Z,60.19
2023-05-08T05:27:28.847Z,60.33
2023-05-08T05:29:56.749Z,59.75
2023-05-08T05:32:24.112Z,60.06
2023-05-08T05:34:51.426Z,59.47
2023-05-08T05:37:20.916Z,58.95
2023-05-08T05:39:48.220Z,59.02
2023-05-08T05:42:16.174Z,58.91
2023-05-08T05:44:44.550Z,59.06
2023-05-08T05:47:12.406Z,58.69
2023-05-08T05:49:46.813Z,58.17
2023-05-08T05:52:14.804Z,58.08
2023-05-08T05:54:42.748Z,58.47
2023-05-08T05:57:10.430Z,57.35
2023-05-08T05:59:38.468Z,57.53
2023-05-08T06:02:05.829Z,56.91
2023-05-08T06:04:33.807Z,57.64
2023-05-08T06:07:03.304Z,57.13
2023-05-08T06:09:31.075Z,56.46
2023-05-08T06:11:58.451Z,57.62
2023-05-08T06:14:25.804Z,57.42
2023-05-08T06:16:53.707Z,56.70
2023-05-08T06:19:21.184Z,56.38
2023-05-08T06:21:48.486Z,56.13
2023-05-08T06:24:16.133Z,56.94
2023-05-08T06:27:11.459Z,56.25
2023-05-08T06:29:38.773Z,57.01
2023-05-08T06:32:06.337Z,57.41
2023-05-08T06:34:33.700Z,57.06
2023-05-08T06:37:00.960Z,57.32
2023-05-08T06:39:28.274Z,57.16
2023-05-08T06:41:55.784Z,57.69
2023-05-08T06:44:30.593Z,57.70
2023-05-08T06:46:57.866Z,56.17
2023-05-08T06:49:25.108Z,56.69
2023-05-08T06:51:52.363Z,55.53
2023-05-08T06:54:19.634Z,55.53
2023-05-08T06:56:46.891Z,55.60
2023-05-08T06:59:14.151Z,56.20
2023-05-08T07:01:41.892Z,56.18
2023-05-08T07:04:09.233Z,56.08
2023-05-08T07:06:36.508Z,55.76
2023-05-08T07:09:03.798Z,55.33
2023-05-08T07:11:31.078Z,55.67
2023-05-08T07:13:58.353Z,55.29
2023-05-08T07:16:25.897Z,55.38
2023-05-08T07:18:53.200Z,55.49
2023-05-08T07:21:21.394Z,56.23
2023-05-08T07:23:51.651Z,54.34
2023-05-08T07:26:18.924Z,54.09
2023-05-08T07:28:46.227Z,54.28
2023-05-08T07:31:13.559Z,54.01
2023-05-08T07:33:41.006Z,54.31
2023-05-08T07:36:08.378Z,53.57
2023-05-08T07:38:36.684Z,54.46
2023-05-08T07:41:05.390Z,54.21
2023-05-08T07:43:32.853Z,53.96
2023-05-08T07:46:00.128Z,52.82
2023-05-08T07:48:27.467Z,53.30
2023-05-08T07:50:54.733Z,53.46
2023-05-08T07:53:21.997Z,54.44
2023-05-08T07:55:49.245Z,53.15
2023-05-08T07:58:16.499Z,53.00
2023-05-08T08:00:44.754Z,52.53
2023-05-08T08:03:12.161Z,52.28
2023-05-08T08:05:39.848Z,52.11
2023-05-08T08:08:07.141Z,52.63
2023-05-08T08:10:34.421Z,52.14
2023-05-08T08:13:02.065Z,52.78
2023-05-08T08:15:29.658Z,51.63
2023-05-08T08:17:57.027Z,51.66
2023-05-08T08:20:24.412Z,51.88
2023-05-08T08:22:51.768Z,52.53
2023-05-08T08:25:19.230Z,52.17
2023-05-08T08:27:46.566Z,52.86
2023-05-08T08:30:18.084Z,52.93
2023-05-08T08:32:46.463Z,52.16
2023-05-08T08:35:14.170Z,50.80
2023-05-08T08:37:42.185Z,51.06
2023-05-08T08:40:09.990Z,51.10
2023-05-08T08:42:37.409Z,51.32
2023-05-08T08:45:05.170Z,51.83
2023-05-08T08:47:37.452Z,51.79
2023-05-08T08:50:05.420Z,50.83
2023-05-08T08:52:43.934Z,50.35
2023-05-08T08:55:13.032Z,50.52
2023-05-08T08:57:48.375Z,49.73
2023-05-08T09:00:16.002Z,49.91
2023-05-08T09:02:43.356Z,49.86
2023-05-08T09:05:11.604Z,50.40
2023-05-08T09:07:39.649Z,49.48
2023-05-08T09:10:07.807Z,49.13
2023-05-08T09:12:35.157Z,49.20
2023-05-08T09:15:03.158Z,49.47
2023-05-08T09:17:30.708Z,49.12
2023-05-08T09:19:57.979Z,49.79
2023-05-08T09:22:25.498Z,49.44
2023-05-08T09:24:59.602Z,48.65
2023-05-08T09:27:28.460Z,47.99
2023-05-08T09:30:00.835Z,48.57
2023-05-08T09:32:29.510Z,48.44
2023-05-08T09:34:56.974Z,48.12
2023-05-08T09:37:24.319Z,48.09
2023-05-08T09:39:51.663Z,48.62
2023-05-08T09:42:18.969Z,46.84
2023-05-08T09:44:47.045Z,47.17
2023-05-08T09:47:15.934Z,48.23
2023-05-08T09:50:09.132Z,48.11
2023-05-08T09:52:37.480Z,47.29
2023-05-08T09:55:06.872Z,47.98
2023-05-08T09:57:38.252Z,47.95
2023-05-08T10:00:09.958Z,47.43
2023-05-08T10:02:41.298Z,47.21
2023-05-08T10:05:36.339Z,46.61
2023-05-08T10:08:23.069Z,46.50
2023-05-08T10:10:50.393Z,46.75
2023-05-08T10:13:17.793Z,47.53
2023-05-08T10:15:45.667Z,46.93
2023-05-08T10:18:13.055Z,46.86
2023-05-08T10:20:42.294Z,46.44
2023-05-08T10:23:11.893Z,46.37
2023-05-08T10:25:43.565Z,46.39
2023-05-08T10:28:16.567Z,45.96
2023-05-08T10:30:47.392Z,46.71
2023-05-08T10:33:15.654Z,46.63
2023-05-08T10:35:42.929Z,47.28
2023-05-08T10:38:10.360Z,46.93
2023-05-08T10:40:37.970Z,45.96
2023-05-08T10:43:07.357Z,45.70
2023-05-08T10:45:34.799Z,45.39
2023-05-08T10:48:11.693Z,44.93
2023-05-08T10:50:48.171Z,44.80
2023-05-08T10:53:34.963Z,44.10
2023-05-08T10:56:02.202Z,44.30
2023-05-08T10:58:33.135Z,45.11
2023-05-08T11:01:00.530Z,44.45
2023-05-08T11:03:32.504Z,44.52
2023-05-08T11:06:00.870Z,45.54
2023-05-08T11:08:28.730Z,45.00
2023-05-08T11:10:59.411Z,44.08
2023-05-08T11:13:38.859Z,44.06
2023-05-08T11:16:15.230Z,43.24
2023-05-08T11:19:20.287Z,43.47
2023-05-08T11:22:16.502Z,44.37
2023-05-08T11:25:00.876Z,42.81
2023-05-08T11:27:37.294Z,43.48
2023-05-08T11:30:23.605Z,43.46
2023-05-08T11:33:05.812Z,43.66
2023-05-08T11:35:56.096Z,43.59
2023-05-08T11:38:34.981Z,43.72
2023-05-08T11:41:03.205Z,43.04
2023-05-08T11:43:33.514Z,44.13
2023-05-08T11:46:04.305Z,43.49
2023-05-08T11:48:34.669Z,42.59
2023-05-08T11:51:02.770Z,41.62
2023-05-08T11:53:33.181Z,41.63
2023-05-08T11:56:00.760Z,42.55
2023-05-08T11:58:28.045Z,43.61
2023-05-08T12:00:55.813Z,43.97
2023-05-08T12:03:25.160Z,44.02
2023-05-08T12:05:55.359Z,42.69
2023-05-08T12:08:22.647Z,42.05
2023-05-08T12:10:53.326Z,41.84
2023-05-08T12:13:29.884Z,42.64
2023-05-08T12:15:58.570Z,42.43
2023-05-08T12:18:26.839Z,41.50
2023-05-08T12:20:58.030Z,41.12
2023-05-08T12:23:26.005Z,42.79
2023-05-08T12:25:58.660Z,42.43
2023-05-08T12:28:25.965Z,42.23
2023-05-08T12:30:53.827Z,42.68
2023-05-08T12:33:21.289Z,42.07
2023-05-08T12:35:48.572Z,43.67
2023-05-08T12:38:15.982Z,44.08
2023-05-08T12:40:44.441Z,43.64
2023-05-08T12:43:11.796Z,43.24
2023-05-08T12:45:42.538Z,43.16
2023-05-08T12:48:12.864Z,41.75
2023-05-08T12:50:41.510Z,42.19
2023-05-08T12:53:10.732Z,41.19
2023-05-08T12:55:38.979Z,41.38
2023-05-08T12:58:15.097Z,42.85
2023-05-08T13:00:47.285Z,43.18
2023-05-08T13:03:22.398Z,41.75
2023-05-08T13:05:49.749Z,42.89
2023-05-08T13:08:17.158Z,42.81
2023-05-08T13:10:51.709Z,41.68
2023-05-08T13:13:23.632Z,42.00
2023-05-08T13:15:51.473Z,41.54
2023-05-08T13:18:19.418Z,42.71
2023-05-08T13:20:46.808Z,43.73
2023-05-08T13:23:14.135Z,42.97
2023-05-08T13:25:41.481Z,43.61
2023-05-08T13:28:09.479Z,43.14
2023-05-08T13:30:36.936Z,42.56
2023-05-08T13:33:04.654Z,42.68
2023-05-08T13:35:32.179Z,42.88
2023-05-08T13:37:59.469Z,42.10
2023-05-08T13:40:26.856Z,42.44
2023-05-08T13:42:54.129Z,42.08
2023-05-08T13:45:21.376Z,42.04
2023-05-08T13:47:49.358Z,42.26
2023-05-08T13:50:17.216Z,42.53
2023-05-08T13:52:44.479Z,41.69
2023-05-08T13:55:12.501Z,42.20
2023-05-08T13:57:40.380Z,42.09
2023-05-08T14:00:09.060Z,41.71
2023-05-08T14:02:37.477Z,41.12
2023-05-08T14:05:05.772Z,40.38
2023-05-08T14:07:33.070Z,40.07
2023-05-08T14:10:00.472Z,39.31
2023-05-08T14:12:27.764Z,37.40
2023-05-08T14:14:55.129Z,37.30
2023-05-08T14:17:22.481Z,36.26
2023-05-08T14:19:49.838Z,34.47
2023-05-08T14:22:17.328Z,35.11
2023-05-08T14:24:44.646Z,35.11
2023-05-08T14:27:12.014Z,33.71
2023-05-08T14:29:41.910Z,33.97
2023-05-08T14:32:11.028Z,33.21
2023-05-08T14:34:38.315Z,33.24
2023-05-08T14:37:05.694Z,34.88
2023-05-08T14:39:32.961Z,35.20
2023-05-08T14:42:22.309Z,34.63
2023-05-08T14:44:51.068Z,33.42
2023-05-08T14:47:18.487Z,32.26
2023-05-08T14:49:45.832Z,32.88
2023-05-08T14:52:14.480Z,32.09
2023-05-08T14:54:42.096Z,32.41
2023-05-08T14:57:09.580Z,33.81
2023-05-08T14:59:38.503Z,33.61
2023-05-08T15:02:07.356Z,32.90
2023-05-08T15:04:36.000Z,33.38
2023-05-08T15:07:03.320Z,33.48
2023-05-08T15:09:30.662Z,32.42
2023-05-08T15:11:57.897Z,32.76
2023-05-08T15:14:25.317Z,33.64
2023-05-08T15:16:52.741Z,34.58
2023-05-08T15:19:20.143Z,34.59
2023-05-08T15:21:47.447Z,34.17
2023-05-08T15:24:14.761Z,34.80
2023-05-08T15:26:42.015Z,35.76
2023-05-08T15:29:09.347Z,35.20
2023-05-08T15:31:36.687Z,35.43
2023-05-08T15:34:04.079Z,34.04
2023-05-08T15:36:34.209Z,34.92
2023-05-08T15:39:01.520Z,34.59
2023-05-08T15:41:28.800Z,34.07
2023-05-08T15:43:56.160Z,34.09
2023-05-08T15:46:23.506Z,35.21
2023-05-08T15:48:50.829Z,34.49
2023-05-08T15:51:18.130Z,34.55
2023-05-08T15:53:45.367Z,33.57
2023-05-08T15:56:12.654Z,34.08
2023-05-08T15:58:40.696Z,33.32
2023-05-08T16:01:08.807Z,32.47
2023-05-08T16:03:36.214Z,33.75
2023-05-08T16:06:03.660Z,36.38
2023-05-08T16:08:31.188Z,37.88
2023-05-08T16:10:58.549Z,40.09
2023-05-08T16:13:25.927Z,41.59
2023-05-08T16:15:53.467Z,42.73
2023-05-08T16:18:20.840Z,42.92
2023-05-08T16:20:48.181Z,43.57
2023-05-08T16:23:15.543Z,43.37
2023-05-08T16:25:42.825Z,43.89
2023-05-08T16:28:10.089Z,44.94
2023-05-08T16:30:37.400Z,45.23
2023-05-08T16:33:04.755Z,45.37
2023-05-08T16:35:33.359Z,45.34
2023-05-08T16:38:00.775Z,45.58
2023-05-08T16:40:28.088Z,45.38
2023-05-08T16:42:55.421Z,45.81
2023-05-08T16:45:22.740Z,46.25
2023-05-08T16:47:50.071Z,46.34
2023-05-08T16:50:17.393Z,46.10
2023-05-08T16:52:44.653Z,46.57
2023-05-08T16:55:12.231Z,46.83
2023-05-08T16:57:39.825Z,47.14
2023-05-08T17:00:07.920Z,47.25
2023-05-08T17:02:35.447Z,47.72
2023-05-08T17:05:02.897Z,47.93
2023-05-08T17:07:30.189Z,47.62
2023-05-08T17:09:57.590Z,47.68
2023-05-08T17:12:25.108Z,47.42
2023-05-08T17:14:52.482Z,47.11
2023-05-08T17:17:19.768Z,47.57
2023-05-08T17:19:47.063Z,47.36
2023-05-08T17:22:14.394Z,47.78
2023-05-08T17:24:41.714Z,48.20
2023-05-08T17:27:09.120Z,48.18
2023-05-08T17:29:36.508Z,48.26
2023-05-08T17:32:03.966Z,48.84
2023-05-08T17:34:31.374Z,49.11
2023-05-08T17:36:58.669Z,48.91
2023-05-08T17:39:25.993Z,49.13
2023-05-08T17:41:54.182Z,49.61
2023-05-08T17:44:21.555Z,49.45
2023-05-08T17:46:48.806Z,49.78
2023-05-08T17:49:19.272Z,49.17
2023-05-08T17:51:46.959Z,49.42
2023-05-08T17:54:14.297Z,49.08
2023-05-08T17:56:41.589Z,49.38
2023-05-08T17:59:08.854Z,50.03
2023-05-08T18:01:36.154Z,49.93
2023-05-08T18:04:03.460Z,50.21
2023-05-08T18:06:30.795Z,50.28
2023-05-08T18:08:58.073Z,50.14
2023-05-08T18:11:25.790Z,50.62
2023-05-08T18:13:53.349Z,50.68
2023-05-08T18:16:21.381Z,50.93
2023-05-08T18:18:49.426Z,51.25
2023-05-08T18:21:16.810Z,51.08
2023-05-08T18:23:44.263Z,51.34
2023-05-08T18:26:15.287Z,51.42
2023-05-08T18:28:42.936Z,51.30
2023-05-08T18:31:10.946Z,51.69
2023-05-08T18:33:38.333Z,52.04
2023-05-08T18:36:07.129Z,51.38
2023-05-08T18:38:34.918Z,52.47
2023-05-08T18:41:06.255Z,51.80
2023-05-08T18:43:33.803Z,52.16
2023-05-08T18:46:12.258Z,51.78
2023-05-08T18:48:42.595Z,51.99
2023-05-08T18:51:10.357Z,52.00
2023-05-08T18:53:38.602Z,52.37
2023-05-08T18:56:06.208Z,52.05
2023-05-08T18:58:33.625Z,52.12
2023-05-08T19:01:01.454Z,52.45
2023-05-08T19:03:28.941Z,52.85
2023-05-08T19:05:56.455Z,52.71
2023-05-08T19:08:24.029Z,53.42
2023-05-08T19:10:52.922Z,53.48
2023-05-08T19:13:20.205Z,53.12
2023-05-08T19:15:47.544Z,53.60
2023-05-08T19:18:14.900Z,54.30
2023-05-08T19:20:42.289Z,54.39
2023-05-08T19:23:09.571Z,54.34
2023-05-08T19:25:37.037Z,54.41
2023-05-08T19:28:04.733Z,54.39
2023-05-08T19:30:32.056Z,54.89
2023-05-08T19:32:59.367Z,54.83
2023-05-08T19:35:26.736Z,54.91
2023-05-08T19:37:56.724Z,54.96
2023-05-08T19:40:23.966Z,55.40
2023-05-08T19:42:51.203Z,55.34
2023-05-08T19:45:18.485Z,55.10
2023-05-08T19:47:51.396Z,55.62
2023-05-08T19:50:18.949Z,55.90
2023-05-08T19:52:49.559Z,55.20
2023-05-08T19:55:16.901Z,55.56
2023-05-08T19:57:44.414Z,55.77
2023-05-08T20:00:12.203Z,55.48
2023-05-08T20:02:39.808Z,56.23
2023-05-08T20:07:37.546Z,56.12
2023-05-08T20:10:05.260Z,56.07
2023-05-08T20:12:32.503Z,56.41
2023-05-08T20:14:59.766Z,56.56
2023-05-08T20:17:27.189Z,56.92
2023-05-08T20:19:54.498Z,56.48
2023-05-08T20:22:21.857Z,57.40
2023-05-08T20:24:49.124Z,57.57
2023-05-08T20:27:16.444Z,56.90
2023-05-08T20:29:43.867Z,57.50
2023-05-08T20:32:14.660Z,57.76
2023-05-08T20:34:42.327Z,57.39
2023-05-08T20:37:09.608Z,58.00
2023-05-08T20:39:36.875Z,58.07
2023-05-08T20:42:04.122Z,57.92
2023-05-08T20:44:31.367Z,57.84
2023-05-08T20:46:58.642Z,57.92
2023-05-08T20:49:26.148Z,58.25
2023-05-08T20:51:53.428Z,57.96
2023-05-08T20:54:21.504Z,58.11
2023-05-08T20:56:48.757Z,58.80
2023-05-08T20:59:16.784Z,58.68
2023-05-08T21:01:44.182Z,58.47
2023-05-08T21:04:11.687Z,59.37
2023-05-08T21:06:38.967Z,58.95
2023-05-08T21:09:07.166Z,58.35
2023-05-08T21:11:34.630Z,57.95
2023-05-08T21:14:01.862Z,58.02
2023-05-08T21:16:29.129Z,58.14
2023-05-08T21:18:58.336Z,58.12
2023-05-08T21:21:25.952Z,57.93
2023-05-08T21:23:53.486Z,57.87
2023-05-08T21:26:23.762Z,58.23
2023-05-08T21:28:52.590Z,58.44
2023-05-08T21:31:20.366Z,57.77
2023-05-08T21:33:47.841Z,58.34
2023-05-08T21:36:15.156Z,58.19
2023-05-08T21:38:42.456Z,58.14
2023-05-08T21:41:09.757Z,57.55
2023-05-08T21:43:37.203Z,57.30
2023-05-08T21:46:05.103Z,57.13
2023-05-08T21:48:32.396Z,57.76
2023-05-08T21:50:59.751Z,56.90
2023-05-08T21:53:27.109Z,57.90
2023-05-08T21:55:54.363Z,57.55
2023-05-08T21:58:21.618Z,57.80
2023-05-08T22:00:50.296Z,58.79
2023-05-08T22:03:17.932Z,58.39
2023-05-08T22:05:45.316Z,58.10
2023-05-08T22:08:12.623Z,58.13
2023-05-08T22:10:40.119Z,59.19
2023-05-08T22:13:07.597Z,58.87
2023-05-08T22:15:35.188Z,58.92
2023-05-08T22:18:03.116Z,58.76
2023-05-08T22:20:30.459Z,59.05
2023-05-08T22:22:57.742Z,59.84
2023-05-08T22:25:26.653Z,59.61
2023-05-08T22:27:54.018Z,59.74
2023-05-08T22:30:21.435Z,59.72
2023-05-08T22:32:55.937Z,60.02
2023-05-08T22:35:24.506Z,60.36
2023-05-08T22:37:54.946Z,61.04
2023-05-08T22:40:22.327Z,61.12
2023-05-08T22:42:51.577Z,61.06
2023-05-08T22:45:19.304Z,61.05
2023-05-08T22:47:46.720Z,60.75
2023-05-08T22:50:14.185Z,61.70
2023-05-08T22:52:41.982Z,61.62
2023-05-08T22:55:09.597Z,62.00
2023-05-08T22:57:36.889Z,61.67
2023-05-08T23:00:06.081Z,61.46
2023-05-08T23:02:33.905Z,62.58
2023-05-08T23:05:02.131Z,62.12
2023-05-08T23:07:29.574Z,62.17
2023-05-08T23:09:56.930Z,61.99
2023-05-08T23:12:24.237Z,62.51
2023-05-08T23:14:51.927Z,62.27
2023-05-08T23:17:19.262Z,63.00
2023-05-08T23:19:46.504Z,63.24
2023-05-08T23:22:13.775Z,62.96
2023-05-08T23:24:41.075Z,63.40
2023-05-08T23:27:08.315Z,63.45
2023-05-08T23:29:35.657Z,63.43
2023-05-08T23:32:02.959Z,63.89
2023-05-08T23:34:30.210Z,63.58
2023-05-08T23:36:57.449Z,63.87
2023-05-08T23:39:24.756Z,64.08
2023-05-08T23:41:52.027Z,64.58
2023-05-08T23:44:19.284Z,64.88
2023-05-08T23:46:46.573Z,65.01
2023-05-08T23:49:13.845Z,65.61
2023-05-08T23:51:41.123Z,65.96
2023-05-08T23:54:08.395Z,65.66
2023-05-08T23:56:35.672Z,65.58
2023-05-08T23:59:03.061Z,66.03
